Time;durP1;ratioP1;P1;durP2;ratioP2;P2;SDS_P1;SDS_P2;PMS_P1;PMS_P2;Temp;Humidity;BMP_temperature;BMP_pressure;BME280_temperature;BME280_humidity;BME280_pressure;Samples;Min_cycle;Max_cycle;Signal;HPM_P1;HPM_P2
2022/07/30 00:02:21;;;;;;;22.88;15.55;;;;;;;;;;5059104;28;20044;-63
2022/07/30 00:04:47;;;;;;;22.67;14.38;;;;;;;;;;5051936;28;20505;-64
2022/07/30 00:07:13;;;;;;;20.05;15.30;;;;;;;;;;5052001;28;20397;-63
2022/07/30 00:09:40;;;;;;;20.23;15.25;;;;;;;;;;5051784;28;20021;-63
2022/07/30 00:12:06;;;;;;;19.27;14.55;;;;;;;;;;5051492;28;20031;-64
2022/07/30 00:14:33;;;;;;;21.90;14.85;;;;;;;;;;5052867;28;20477;-64
2022/07/30 00:17:00;;;;;;;22.02;15.82;;;;;;;;;;5053723;28;20035;-64
2022/07/30 00:19:26;;;;;;;22.23;16.30;;;;;;;;;;5053350;28;20100;-64
2022/07/30 00:21:53;;;;;;;19.58;14.65;;;;;;;;;;5053385;28;20454;-64
2022/07/30 00:24:19;;;;;;;21.85;15.60;;;;;;;;;;5053639;28;20025;-64
2022/07/30 00:26:45;;;;;;;22.52;16.63;;;;;;;;;;5053375;28;20029;-63
2022/07/30 00:29:11;;;;;;;22.23;16.10;;;;;;;;;;5051872;28;20028;-64
2022/07/30 00:31:37;;;;;;;21.33;16.02;;;;;;;;;;5053135;28;20033;-64
2022/07/30 00:34:03;;;;;;;22.13;16.08;;;;;;;;;;5053111;28;20021;-64
2022/07/30 00:36:30;;;;;;;21.17;15.02;;;;;;;;;;5052728;28;20650;-64
2022/07/30 00:38:56;;;;;;;23.60;15.98;;;;;;;;;;5052761;28;20100;-65
2022/07/30 00:41:22;;;;;;;24.60;16.08;;;;;;;;;;5053144;28;20035;-63
2022/07/30 00:43:48;;;;;;;23.85;16.15;;;;;;;;;;5053108;28;20024;-64
2022/07/30 00:46:15;;;;;;;23.77;15.52;;;;;;;;;;5052989;28;20424;-63
2022/07/30 00:48:41;;;;;;;22.65;16.05;;;;;;;;;;5052758;28;20091;-64
2022/07/30 00:51:07;;;;;;;22.52;16.75;;;;;;;;;;5053006;28;20025;-64
2022/07/30 00:53:33;;;;;;;22.35;16.63;;;;;;;;;;5052725;28;20023;-64
2022/07/30 00:56:00;;;;;;;23.95;15.07;;;;;;;;;;5052544;28;20025;-64
2022/07/30 00:58:26;;;;;;;21.05;15.40;;;;;;;;;;5052248;28;20025;-64
2022/07/30 01:00:52;;;;;;;19.90;15.63;;;;;;;;;;5052673;28;20082;-64
2022/07/30 01:03:18;;;;;;;21.10;16.50;;;;;;;;;;5052704;28;20044;-64
2022/07/30 01:05:44;;;;;;;20.40;16.48;;;;;;;;;;5053015;28;20032;-64
2022/07/30 01:08:11;;;;;;;23.60;16.50;;;;;;;;;;5052322;28;20032;-64
2022/07/30 01:10:37;;;;;;;22.08;17.05;;;;;;;;;;5052741;28;20032;-64
2022/07/30 01:13:04;;;;;;;21.13;16.02;;;;;;;;;;5051223;28;20540;-64
2022/07/30 01:15:30;;;;;;;21.13;16.33;;;;;;;;;;5052586;28;20023;-64
2022/07/30 01:17:59;;;;;;;22.38;16.45;;;;;;;;;;5052192;28;20017;-65
2022/07/30 01:20:48;;;;;;;24.65;16.50;;;;;;;;;;5052700;28;20047;-64
2022/07/30 01:23:17;;;;;;;21.40;16.25;;;;;;;;;;5046885;28;20051;-64
2022/07/30 01:25:52;;;;;;;21.05;16.17;;;;;;;;;;5052445;28;20025;-64
2022/07/30 01:28:24;;;;;;;22.33;17.08;;;;;;;;;;5052039;28;20029;-64
2022/07/30 01:30:50;;;;;;;23.20;17.08;;;;;;;;;;5052430;28;20136;-64
2022/07/30 01:33:17;;;;;;;20.65;16.77;;;;;;;;;;5052581;28;20423;-65
2022/07/30 01:35:44;;;;;;;26.30;17.75;;;;;;;;;;5052420;28;20027;-64
2022/07/30 01:38:10;;;;;;;22.75;17.60;;;;;;;;;;5052155;28;20029;-64
2022/07/30 01:40:38;;;;;;;25.15;17.33;;;;;;;;;;5052104;28;20025;-64
2022/07/30 01:43:05;;;;;;;24.40;17.25;;;;;;;;;;5052377;28;20029;-64
2022/07/30 01:45:32;;;;;;;22.55;17.40;;;;;;;;;;5052281;28;20439;-64
2022/07/30 01:47:59;;;;;;;21.77;17.13;;;;;;;;;;5053722;28;20033;-65
2022/07/30 01:50:26;;;;;;;24.88;18.95;;;;;;;;;;5056220;28;20075;-64
2022/07/30 01:52:53;;;;;;;22.15;17.65;;;;;;;;;;5056342;28;20063;-64
2022/07/30 01:55:35;;;;;;;25.60;18.90;;;;;;;;;;5055702;28;20022;-64
2022/07/30 01:58:03;;;;;;;21.85;17.77;;;;;;;;;;5055576;28;20496;-63
2022/07/30 02:00:30;;;;;;;27.42;19.15;;;;;;;;;;5086293;23;20068;-60
2022/07/30 02:02:57;;;;;;;23.25;17.95;;;;;;;;;;5074479;28;20035;-60
2022/07/30 02:05:23;;;;;;;25.23;18.77;;;;;;;;;;5075634;28;20396;-59
2022/07/30 02:07:53;;;;;;;23.70;18.70;;;;;;;;;;5075169;28;20078;-60
2022/07/30 02:10:33;;;;;;;24.15;19.70;;;;;;;;;;5075658;28;20066;-59
2022/07/30 02:13:00;;;;;;;24.85;19.27;;;;;;;;;;5075522;28;20461;-59
2022/07/30 02:15:35;;;;;;;22.25;19.00;;;;;;;;;;5075375;28;20423;-59
2022/07/30 02:18:10;;;;;;;24.38;19.13;;;;;;;;;;5075023;28;20017;-57
2022/07/30 02:20:36;;;;;;;26.20;19.55;;;;;;;;;;5075310;28;20025;-60
2022/07/30 02:23:06;;;;;;;24.05;19.45;;;;;;;;;;5075134;28;20032;-59
2022/07/30 02:25:34;;;;;;;24.67;19.48;;;;;;;;;;5075060;28;20028;-59
2022/07/30 02:28:02;;;;;;;23.25;18.95;;;;;;;;;;5073584;28;20021;-59
2022/07/30 02:30:28;;;;;;;;;;;;;;;;;;5075275;28;20032;-60
2022/07/30 02:32:57;;;;;;;25.50;19.10;;;;;;;;;;5074786;28;19972;-59
2022/07/30 02:35:25;;;;;;;24.02;18.75;;;;;;;;;;5074786;28;20059;-60
2022/07/30 02:37:53;;;;;;;23.63;19.27;;;;;;;;;;5074736;28;20065;-58
2022/07/30 02:40:19;;;;;;;25.20;19.17;;;;;;;;;;5074760;28;20029;-60
2022/07/30 02:42:46;;;;;;;23.63;19.65;;;;;;;;;;5073543;28;20025;-61
2022/07/30 02:45:13;;;;;;;23.40;19.05;;;;;;;;;;5073351;28;20032;-60
2022/07/30 02:47:39;;;;;;;26.13;19.45;;;;;;;;;;5074788;28;20039;-60
2022/07/30 02:50:06;;;;;;;25.05;19.83;;;;;;;;;;5074636;28;20640;-60
2022/07/30 02:52:33;;;;;;;25.08;19.15;;;;;;;;;;5074654;28;20033;-60
2022/07/30 02:55:00;;;;;;;24.67;20.05;;;;;;;;;;5074695;28;20063;-59
2022/07/30 02:57:27;;;;;;;24.85;20.02;;;;;;;;;;5074353;28;20024;-60
2022/07/30 02:59:55;;;;;;;25.58;19.67;;;;;;;;;;5073636;28;20028;-60
2022/07/30 03:02:21;;;;;;;25.33;20.50;;;;;;;;;;5074565;28;20035;-59
2022/07/30 03:04:48;;;;;;;24.10;20.13;;;;;;;;;;5073287;28;20400;-59
2022/07/30 03:07:14;;;;;;;23.42;19.35;;;;;;;;;;5074232;28;20025;-61
2022/07/30 03:09:42;;;;;;;23.70;19.73;;;;;;;;;;5072892;28;20507;-60
2022/07/30 03:12:10;;;;;;;23.75;19.50;;;;;;;;;;5074066;28;20024;-60
2022/07/30 03:14:36;;;;;;;;;;;;;;;;;;5074531;28;20485;-58
2022/07/30 03:17:02;;;;;;;23.08;19.00;;;;;;;;;;5074212;28;19961;-58
2022/07/30 03:19:31;;;;;;;23.52;19.10;;;;;;;;;;5072550;28;20032;-61
2022/07/30 03:21:58;;;;;;;24.15;19.92;;;;;;;;;;5074154;28;20016;-59
2022/07/30 03:24:25;;;;;;;26.27;20.88;;;;;;;;;;5074069;28;20512;-60
2022/07/30 03:26:52;;;;;;;25.65;20.10;;;;;;;;;;5072365;28;20489;-60
2022/07/30 03:29:18;;;;;;;25.45;21.23;;;;;;;;;;5073839;28;20033;-61
2022/07/30 03:31:44;;;;;;;24.63;19.98;;;;;;;;;;5073658;28;20024;-60
2022/07/30 03:34:10;;;;;;;26.08;20.20;;;;;;;;;;5073431;28;20074;-61
2022/07/30 03:36:38;;;;;;;24.17;20.77;;;;;;;;;;5072455;28;20027;-62
2022/07/30 03:39:06;;;;;;;24.52;20.30;;;;;;;;;;5072122;28;20388;-59
2022/07/30 03:41:32;;;;;;;25.35;21.13;;;;;;;;;;5073607;28;20036;-59
2022/07/30 03:43:59;;;;;;;24.70;19.92;;;;;;;;;;5073631;28;20020;-59
2022/07/30 03:46:26;;;;;;;24.23;19.88;;;;;;;;;;5071782;28;20032;-60
2022/07/30 03:48:53;;;;;;;27.55;21.27;;;;;;;;;;5072973;28;20035;-59
2022/07/30 03:51:20;;;;;;;25.33;20.20;;;;;;;;;;5073321;28;20154;-60
2022/07/30 03:53:46;;;;;;;25.23;20.90;;;;;;;;;;5073563;28;20074;-60
2022/07/30 03:56:13;;;;;;;27.98;20.90;;;;;;;;;;5072182;28;20020;-59
2022/07/30 03:58:40;;;;;;;25.00;20.85;;;;;;;;;;5071927;28;20028;-60
2022/07/30 04:01:06;;;;;;;24.75;20.40;;;;;;;;;;5073502;28;20029;-62
2022/07/30 04:03:32;;;;;;;26.10;20.50;;;;;;;;;;5074052;28;20456;-62
2022/07/30 04:05:58;;;;;;;25.55;20.67;;;;;;;;;;5072238;28;20024;-60
2022/07/30 04:08:25;;;;;;;23.63;19.67;;;;;;;;;;5071758;28;20120;-60
2022/07/30 04:10:51;;;;;;;23.20;20.13;;;;;;;;;;5070808;28;20028;-59
2022/07/30 04:13:17;;;;;;;24.10;20.33;;;;;;;;;;5073280;28;20019;-58
2022/07/30 04:15:48;;;;;;;24.20;20.38;;;;;;;;;;5071847;28;20043;-60
2022/07/30 04:18:15;;;;;;;23.60;20.38;;;;;;;;;;5072881;28;20023;-62
2022/07/30 04:20:42;;;;;;;22.23;19.02;;;;;;;;;;5072905;28;20388;-61
2022/07/30 04:23:09;;;;;;;26.20;19.58;;;;;;;;;;5072909;28;20434;-60
2022/07/30 04:25:35;;;;;;;22.95;18.98;;;;;;;;;;5072784;28;20098;-60
2022/07/30 04:28:02;;;;;;;23.17;19.73;;;;;;;;;;5072511;28;20158;-60
2022/07/30 04:30:28;;;;;;;23.35;19.58;;;;;;;;;;5072534;28;20031;-62
2022/07/30 04:32:54;;;;;;;22.98;18.95;;;;;;;;;;5071490;28;20500;-61
2022/07/30 04:35:27;;;;;;;25.98;20.83;;;;;;;;;;5072708;28;20031;-60
2022/07/30 04:37:53;;;;;;;24.38;20.23;;;;;;;;;;5072502;28;20035;-60
2022/07/30 04:40:19;;;;;;;28.05;21.15;;;;;;;;;;5072987;28;20081;-60
2022/07/30 04:42:46;;;;;;;22.50;19.83;;;;;;;;;;5073184;28;20021;-60
2022/07/30 04:45:12;;;;;;;25.40;20.63;;;;;;;;;;5072857;28;20037;-60
2022/07/30 04:47:38;;;;;;;24.02;19.58;;;;;;;;;;5072427;28;20025;-60
2022/07/30 04:50:05;;;;;;;25.60;19.88;;;;;;;;;;5072600;28;20025;-60
2022/07/30 04:52:31;;;;;;;26.83;19.33;;;;;;;;;;5069385;28;20024;-60
2022/07/30 04:54:59;;;;;;;24.40;18.65;;;;;;;;;;5072301;28;20529;-60
2022/07/30 04:57:27;;;;;;;22.58;19.20;;;;;;;;;;5072153;28;20392;-61
2022/07/30 04:59:53;;;;;;;23.80;20.33;;;;;;;;;;5071891;28;20111;-61
2022/07/30 05:02:20;;;;;;;27.65;19.60;;;;;;;;;;5072166;28;20108;-61
2022/07/30 05:04:46;;;;;;;24.45;19.52;;;;;;;;;;5072204;28;20025;-60
2022/07/30 05:07:13;;;;;;;24.55;20.58;;;;;;;;;;5071903;28;20130;-60
2022/07/30 05:09:39;;;;;;;24.73;19.65;;;;;;;;;;5072114;28;20028;-61
2022/07/30 05:12:05;;;;;;;23.52;19.98;;;;;;;;;;5072128;28;20020;-60
2022/07/30 05:14:31;;;;;;;23.20;20.40;;;;;;;;;;5072082;28;20031;-61
2022/07/30 05:16:57;;;;;;;24.80;20.65;;;;;;;;;;5070480;28;20024;-59
2022/07/30 05:19:24;;;;;;;25.75;20.48;;;;;;;;;;5070278;28;20123;-59
2022/07/30 05:21:50;;;;;;;24.35;20.27;;;;;;;;;;5071358;28;20492;-58
2022/07/30 05:24:16;;;;;;;29.45;19.25;;;;;;;;;;5071865;28;20036;-61
2022/07/30 05:26:42;;;;;;;22.52;18.55;;;;;;;;;;5072019;28;20404;-61
2022/07/30 05:29:08;;;;;;;23.33;18.88;;;;;;;;;;5071804;28;20048;-62
2022/07/30 05:31:34;;;;;;;25.55;18.98;;;;;;;;;;5071584;28;20067;-61
2022/07/30 05:34:00;;;;;;;26.45;19.85;;;;;;;;;;5071897;28;20016;-61
2022/07/30 05:36:26;;;;;;;22.10;18.77;;;;;;;;;;5071907;28;20029;-60
2022/07/30 05:38:53;;;;;;;24.75;19.63;;;;;;;;;;5071769;28;20024;-58
2022/07/30 05:41:19;;;;;;;24.30;19.10;;;;;;;;;;5071773;28;20035;-59
2022/07/30 05:43:45;;;;;;;22.02;18.17;;;;;;;;;;5071773;28;20086;-61
2022/07/30 05:46:11;;;;;;;22.50;18.75;;;;;;;;;;5071445;28;20029;-61
2022/07/30 05:48:37;;;;;;;23.33;18.80;;;;;;;;;;5071434;28;20051;-61
2022/07/30 05:51:03;;;;;;;26.92;20.05;;;;;;;;;;5071406;28;20384;-61
2022/07/30 05:53:30;;;;;;;24.70;19.33;;;;;;;;;;5071822;28;20024;-61
2022/07/30 05:55:57;;;;;;;22.88;18.98;;;;;;;;;;5071654;28;20115;-61
2022/07/30 05:58:23;;;;;;;25.00;19.50;;;;;;;;;;5069997;28;20020;-61
2022/07/30 06:00:49;;;;;;;26.60;19.33;;;;;;;;;;5071080;28;20119;-61
2022/07/30 06:03:15;;;;;;;23.95;18.95;;;;;;;;;;5071354;28;20060;-61
2022/07/30 06:05:41;;;;;;;21.90;18.98;;;;;;;;;;5071429;28;20060;-61
2022/07/30 06:08:07;;;;;;;23.42;19.67;;;;;;;;;;5071453;28;20024;-61
2022/07/30 06:10:33;;;;;;;23.90;18.77;;;;;;;;;;5071379;28;20056;-61
2022/07/30 06:12:59;;;;;;;22.40;18.77;;;;;;;;;;5070199;28;20027;-61
2022/07/30 06:15:26;;;;;;;23.90;18.60;;;;;;;;;;5071490;28;20017;-61
2022/07/30 06:17:52;;;;;;;26.70;19.85;;;;;;;;;;5069785;28;20401;-61
2022/07/30 06:20:19;;;;;;;22.88;19.48;;;;;;;;;;5070133;28;20488;-60
2022/07/30 06:22:45;;;;;;;26.77;20.05;;;;;;;;;;5071308;28;20028;-60
2022/07/30 06:25:12;;;;;;;24.42;20.80;;;;;;;;;;5071275;28;20104;-60
2022/07/30 06:27:38;;;;;;;23.92;19.20;;;;;;;;;;5071103;28;20028;-60
2022/07/30 06:30:05;;;;;;;22.55;19.20;;;;;;;;;;5071118;28;20375;-62
2022/07/30 06:32:31;;;;;;;26.05;21.00;;;;;;;;;;5071043;28;20017;-61
2022/07/30 06:34:57;;;;;;;22.35;19.20;;;;;;;;;;5072995;28;20028;-61
2022/07/30 06:37:24;;;;;;;24.40;19.83;;;;;;;;;;5074757;28;20031;-60
2022/07/30 06:39:50;;;;;;;24.80;19.10;;;;;;;;;;5074785;28;20024;-60
2022/07/30 06:42:16;;;;;;;24.75;19.88;;;;;;;;;;5074749;28;20027;-62
2022/07/30 06:44:42;;;;;;;23.13;19.77;;;;;;;;;;5074702;28;20078;-60
2022/07/30 06:47:08;;;;;;;23.48;19.73;;;;;;;;;;5073028;28;20020;-60
2022/07/30 06:49:35;;;;;;;22.08;19.50;;;;;;;;;;5073003;28;20426;-61
2022/07/30 06:52:01;;;;;;;24.90;20.25;;;;;;;;;;5074758;28;20025;-59
2022/07/30 06:54:27;;;;;;;27.73;21.55;;;;;;;;;;5060745;28;20060;-61
2022/07/30 06:56:53;;;;;;;23.55;19.27;;;;;;;;;;5053124;28;20113;-59
2022/07/30 06:59:19;;;;;;;24.02;20.13;;;;;;;;;;5053979;28;20032;-60
2022/07/30 07:01:46;;;;;;;28.23;22.08;;;;;;;;;;5054083;28;20052;-60
2022/07/30 07:04:12;;;;;;;25.17;21.20;;;;;;;;;;5054498;28;20033;-60
2022/07/30 07:06:38;;;;;;;29.80;21.77;;;;;;;;;;5053497;28;20024;-60
2022/07/30 07:09:04;;;;;;;27.45;21.63;;;;;;;;;;5054021;28;20040;-57
2022/07/30 07:11:30;;;;;;;25.85;21.30;;;;;;;;;;5052664;28;20028;-61
2022/07/30 07:13:56;;;;;;;26.88;22.13;;;;;;;;;;5054385;28;20465;-60
2022/07/30 07:16:26;;;;;;;26.90;21.02;;;;;;;;;;5054374;28;20135;-59
2022/07/30 07:18:52;;;;;;;27.70;22.38;;;;;;;;;;5054270;28;20075;-60
2022/07/30 07:21:18;;;;;;;28.52;21.52;;;;;;;;;;5054800;28;20041;-60
2022/07/30 07:23:47;;;;;;;26.15;20.75;;;;;;;;;;5053369;28;20025;-57
2022/07/30 07:26:13;;;;;;;25.52;21.98;;;;;;;;;;5054777;28;20075;-58
2022/07/30 07:28:39;;;;;;;23.77;20.98;;;;;;;;;;5054433;28;20473;-60
2022/07/30 07:31:05;;;;;;;23.55;20.33;;;;;;;;;;5054200;28;20025;-61
2022/07/30 07:33:31;;;;;;;24.27;21.20;;;;;;;;;;5053752;28;20020;-60
2022/07/30 07:36:06;;;;;;;24.77;21.08;;;;;;;;;;5053360;28;20439;-62
2022/07/30 07:38:32;;;;;;;24.55;20.85;;;;;;;;;;5053431;28;20386;-59
2022/07/30 07:40:58;;;;;;;23.30;19.60;;;;;;;;;;5052481;28;20029;-67
2022/07/30 07:43:24;;;;;;;25.08;20.40;;;;;;;;;;5053477;28;20098;-60
2022/07/30 07:45:50;;;;;;;24.92;21.17;;;;;;;;;;5053725;28;20443;-63
2022/07/30 07:48:17;;;;;;;29.65;21.08;;;;;;;;;;5053014;28;20036;-63
2022/07/30 07:50:43;;;;;;;24.15;21.45;;;;;;;;;;5051906;28;20026;-63
2022/07/30 07:53:09;;;;;;;25.67;21.20;;;;;;;;;;5053148;28;20025;-63
2022/07/30 07:55:35;;;;;;;25.10;19.08;;;;;;;;;;5061484;28;20077;-64
2022/07/30 07:58:01;;;;;;;23.80;19.30;;;;;;;;;;5072350;28;20055;-63
2022/07/30 08:00:27;;;;;;;25.80;19.48;;;;;;;;;;5073980;28;20507;-63
2022/07/30 08:02:53;;;;;;;23.50;19.83;;;;;;;;;;5071875;28;20038;-64
2022/07/30 08:05:19;;;;;;;24.35;20.58;;;;;;;;;;5073083;28;20100;-65
2022/07/30 08:07:45;;;;;;;28.65;20.40;;;;;;;;;;5072796;28;20028;-64
2022/07/30 08:10:13;;;;;;;26.58;19.95;;;;;;;;;;5071642;28;20497;-64
2022/07/30 08:12:40;;;;;;;27.10;20.52;;;;;;;;;;5071650;28;20472;-64
2022/07/30 08:15:08;;;;;;;28.45;20.30;;;;;;;;;;5072327;28;20485;-62
2022/07/30 08:17:38;;;;;;;24.30;20.35;;;;;;;;;;5072591;28;20029;-65
2022/07/30 08:20:05;;;;;;;23.83;19.08;;;;;;;;;;5073622;28;20020;-65
2022/07/30 08:22:31;;;;;;;26.10;19.33;;;;;;;;;;5073424;28;20480;-65
2022/07/30 08:24:58;;;;;;;23.80;19.38;;;;;;;;;;5073175;28;20115;-64
2022/07/30 08:27:25;;;;;;;24.40;19.67;;;;;;;;;;5072995;28;20028;-66
2022/07/30 08:29:51;;;;;;;23.42;20.50;;;;;;;;;;5072973;28;20028;-66
2022/07/30 08:32:17;;;;;;;23.38;18.35;;;;;;;;;;5074721;28;20073;-65
2022/07/30 08:34:43;;;;;;;21.85;18.10;;;;;;;;;;5072589;28;20027;-65
2022/07/30 08:37:09;;;;;;;23.85;19.35;;;;;;;;;;5073002;28;20020;-64
2022/07/30 08:39:35;;;;;;;23.85;19.30;;;;;;;;;;5072187;28;20039;-64
2022/07/30 08:42:03;;;;;;;23.50;18.85;;;;;;;;;;5072584;28;20021;-65
2022/07/30 08:44:30;;;;;;;;;;;;;;;;;;5071940;28;20103;-66
2022/07/30 08:46:58;;;;;;;24.52;20.27;;;;;;;;;;5072791;28;19957;-66
2022/07/30 08:49:24;;;;;;;21.88;18.80;;;;;;;;;;5072393;28;20059;-64
2022/07/30 08:51:50;;;;;;;23.20;18.70;;;;;;;;;;5071777;28;20115;-64
2022/07/30 08:54:19;;;;;;;24.45;19.17;;;;;;;;;;5070418;28;20021;-65
2022/07/30 08:56:48;;;;;;;23.48;20.38;;;;;;;;;;5073261;28;20029;-66
2022/07/30 08:59:14;;;;;;;;;;;;;;;;;;5074605;28;20031;-62
2022/07/30 09:01:40;;;;;;;21.13;17.75;;;;;;;;;;5072906;28;19912;-65
2022/07/30 09:04:06;;;;;;;21.50;18.17;;;;;;;;;;5072360;28;20036;-66
2022/07/30 09:06:32;;;;;;;23.77;19.33;;;;;;;;;;5072827;28;20511;-65
2022/07/30 09:08:58;;;;;;;24.38;18.42;;;;;;;;;;5073816;28;20032;-65
2022/07/30 09:11:24;;;;;;;24.90;19.75;;;;;;;;;;5075168;28;20021;-65
2022/07/30 09:13:50;;;;;;;25.90;17.80;;;;;;;;;;5073859;28;20025;-66
2022/07/30 09:16:23;;;;;;;24.48;17.75;;;;;;;;;;5073253;28;20443;-66
2022/07/30 09:18:50;;;;;;;24.40;18.67;;;;;;;;;;5073858;28;20028;-66
2022/07/30 09:21:22;;;;;;;24.08;18.77;;;;;;;;;;5073176;28;20433;-65
2022/07/30 09:23:54;;;;;;;26.45;18.38;;;;;;;;;;5071606;28;20031;-65
2022/07/30 09:26:20;;;;;;;22.30;18.65;;;;;;;;;;5072501;28;20020;-65
2022/07/30 09:28:47;;;;;;;23.27;18.85;;;;;;;;;;5072171;28;20498;-65
2022/07/30 09:31:13;;;;;;;22.45;17.08;;;;;;;;;;5075007;28;20090;-65
2022/07/30 09:33:40;;;;;;;23.17;18.52;;;;;;;;;;5075776;28;20031;-64
2022/07/30 09:36:08;;;;;;;22.88;17.70;;;;;;;;;;5077288;28;20032;-64
2022/07/30 09:38:51;;;;;;;24.17;18.13;;;;;;;;;;5075530;28;20027;-64
2022/07/30 09:41:19;;;;;;;20.52;17.25;;;;;;;;;;5075790;28;20028;-63
2022/07/30 09:43:46;;;;;;;23.05;19.48;;;;;;;;;;5077320;28;20025;-63
2022/07/30 09:46:12;;;;;;;21.63;18.55;;;;;;;;;;5075796;28;20063;-64
2022/07/30 09:48:38;;;;;;;22.55;18.05;;;;;;;;;;5074612;28;20146;-65
2022/07/30 09:51:04;;;;;;;22.90;18.95;;;;;;;;;;5071882;28;20032;-64
2022/07/30 09:53:31;;;;;;;23.58;19.83;;;;;;;;;;5066418;28;20511;-65
2022/07/30 09:55:58;;;;;;;23.02;18.40;;;;;;;;;;5052572;28;20017;-64
2022/07/30 09:58:25;;;;;;;22.77;18.55;;;;;;;;;;5071233;28;20480;-65
2022/07/30 10:00:56;;;;;;;20.92;17.67;;;;;;;;;;5070863;28;20036;-64
2022/07/30 10:03:24;;;;;;;23.85;19.92;;;;;;;;;;5066591;28;20048;-64
2022/07/30 10:05:54;;;;;;;23.42;18.95;;;;;;;;;;5071383;28;20096;-65
2022/07/30 10:08:21;;;;;;;24.23;19.63;;;;;;;;;;5069495;28;20110;-65
2022/07/30 10:10:48;;;;;;;24.48;17.35;;;;;;;;;;5073700;28;20058;-64
2022/07/30 10:13:15;;;;;;;25.37;19.13;;;;;;;;;;5073655;28;20023;-65
2022/07/30 10:15:41;;;;;;;24.02;20.67;;;;;;;;;;5073329;28;20642;-65
2022/07/30 10:18:07;;;;;;;27.27;19.60;;;;;;;;;;5074381;28;20015;-64
2022/07/30 10:20:34;;;;;;;23.55;18.52;;;;;;;;;;5075401;28;20029;-64
2022/07/30 10:23:00;;;;;;;24.15;19.85;;;;;;;;;;5076288;28;20028;-64
2022/07/30 10:25:26;;;;;;;27.27;18.48;;;;;;;;;;5076132;28;20568;-65
2022/07/30 10:27:52;;;;;;;21.25;17.70;;;;;;;;;;5076478;28;20032;-63
2022/07/30 10:30:19;;;;;;;21.25;17.65;;;;;;;;;;5076630;28;20040;-65
2022/07/30 10:32:46;;;;;;;21.10;17.85;;;;;;;;;;5077776;28;20128;-65
2022/07/30 10:35:12;;;;;;;23.52;19.40;;;;;;;;;;5077107;28;20027;-61
2022/07/30 10:37:41;;;;;;;21.70;18.73;;;;;;;;;;5075516;28;20021;-65
2022/07/30 10:40:10;;;;;;;21.05;17.73;;;;;;;;;;5074469;28;20021;-64
2022/07/30 10:42:55;;;;;;;24.58;17.75;;;;;;;;;;5074353;28;20052;-65
2022/07/30 10:45:27;;;;;;;23.63;17.98;;;;;;;;;;5074735;28;20032;-63
2022/07/30 10:47:54;;;;;;;23.27;18.98;;;;;;;;;;5075616;28;20396;-63
2022/07/30 10:50:25;;;;;;;24.85;18.15;;;;;;;;;;5074361;28;20024;-63
2022/07/30 10:52:51;;;;;;;22.20;16.73;;;;;;;;;;5074981;28;20025;-64
2022/07/30 10:55:18;;;;;;;20.02;16.42;;;;;;;;;;5057015;28;20070;-64
2022/07/30 10:57:56;;;;;;;20.70;17.13;;;;;;;;;;5057427;28;20154;-65
2022/07/30 11:00:22;;;;;;;24.02;17.55;;;;;;;;;;5055906;28;20037;-63
2022/07/30 11:03:08;;;;;;;20.85;16.92;;;;;;;;;;5057525;28;20033;-63
2022/07/30 11:05:35;;;;;;;20.55;16.48;;;;;;;;;;5050480;28;20033;-63
2022/07/30 11:08:20;;;;;;;18.70;15.35;;;;;;;;;;5057265;28;20104;-60
2022/07/30 11:10:45;;;;;;;19.90;14.93;;;;;;;;;;5058175;28;20031;-63
2022/07/30 11:13:11;;;;;;;20.60;16.20;;;;;;;;;;5057319;28;20104;-64
2022/07/30 11:15:56;;;;;;;20.75;15.93;;;;;;;;;;5057287;28;20021;-61
2022/07/30 11:18:23;;;;;;;20.35;15.88;;;;;;;;;;5056753;28;20107;-62
2022/07/30 11:21:08;;;;;;;24.05;16.30;;;;;;;;;;5056679;28;20378;-62
2022/07/30 11:23:36;;;;;;;21.42;15.55;;;;;;;;;;5055552;28;20041;-67
2022/07/30 11:26:02;;;;;;;19.75;14.50;;;;;;;;;;5052449;28;20357;-67
2022/07/30 11:28:38;;;;;;;19.85;14.13;;;;;;;;;;5053776;28;20056;-67
2022/07/30 11:31:24;;;;;;;18.00;14.57;;;;;;;;;;5053647;28;20406;-67
2022/07/30 11:33:50;;;;;;;19.55;15.25;;;;;;;;;;5053614;28;20102;-66
2022/07/30 11:36:16;;;;;;;20.08;15.93;;;;;;;;;;5053459;28;20029;-66
2022/07/30 11:38:51;;;;;;;20.05;17.38;;;;;;;;;;5053399;28;20477;-65
2022/07/30 11:41:17;;;;;;;21.80;15.45;;;;;;;;;;5051121;28;20386;-67
2022/07/30 11:43:43;;;;;;;19.17;14.90;;;;;;;;;;5053077;28;20029;-67
2022/07/30 11:46:16;;;;;;;18.83;15.13;;;;;;;;;;5053517;28;20025;-67
2022/07/30 11:48:53;;;;;;;20.67;14.57;;;;;;;;;;5052970;28;20031;-67
2022/07/30 11:51:20;;;;;;;25.42;16.23;;;;;;;;;;5053355;28;20029;-67
2022/07/30 11:53:59;;;;;;;19.52;14.68;;;;;;;;;;5053393;28;20033;-67
2022/07/30 11:56:25;;;;;;;20.10;15.27;;;;;;;;;;5053854;28;20025;-67
2022/07/30 11:59:00;;;;;;;18.58;15.18;;;;;;;;;;5053255;28;20098;-67
2022/07/30 12:01:26;;;;;;;21.48;16.15;;;;;;;;;;5053810;28;20029;-68
2022/07/30 12:03:52;;;;;;;20.02;15.50;;;;;;;;;;5059682;28;20481;-67
2022/07/30 12:06:22;;;;;;;19.98;15.52;;;;;;;;;;5058240;28;20033;-67
2022/07/30 12:08:49;;;;;;;19.40;15.07;;;;;;;;;;5056728;28;20025;-67
2022/07/30 12:11:16;;;;;;;21.35;15.30;;;;;;;;;;5053702;28;20040;-67
2022/07/30 12:13:43;;;;;;;21.98;15.52;;;;;;;;;;5053495;28;20207;-67
2022/07/30 12:16:10;;;;;;;23.27;15.63;;;;;;;;;;5051807;28;20393;-68
2022/07/30 12:18:36;;;;;;;19.13;15.43;;;;;;;;;;5052762;28;20017;-67
2022/07/30 12:21:04;;;;;;;18.85;14.95;;;;;;;;;;5052182;28;20112;-66
2022/07/30 12:23:30;;;;;;;19.25;15.95;;;;;;;;;;5051260;28;20389;-68
2022/07/30 12:25:57;;;;;;;20.38;14.80;;;;;;;;;;5050853;28;20029;-65
2022/07/30 12:28:29;;;;;;;22.23;15.25;;;;;;;;;;5050704;28;20024;-68
2022/07/30 12:30:56;;;;;;;18.80;14.95;;;;;;;;;;5049964;28;20412;-66
2022/07/30 12:33:22;;;;;;;19.15;14.80;;;;;;;;;;5049781;28;20528;-68
2022/07/30 12:35:49;;;;;;;18.95;14.88;;;;;;;;;;5052829;28;20028;-69
2022/07/30 12:38:16;;;;;;;19.67;14.40;;;;;;;;;;5057611;28;20066;-65
2022/07/30 12:40:54;;;;;;;17.98;14.23;;;;;;;;;;5072063;28;20096;-65
2022/07/30 12:43:20;;;;;;;;;;;;;;;;;;5072382;28;20035;-66
2022/07/30 12:45:46;;;;;;;20.27;14.52;;;;;;;;;;5072344;28;19924;-65
2022/07/30 12:48:12;;;;;;;17.35;13.90;;;;;;;;;;5071987;28;20561;-65
2022/07/30 12:50:38;;;;;;;18.60;14.05;;;;;;;;;;5071589;28;20031;-66
2022/07/30 12:53:04;;;;;;;17.90;14.68;;;;;;;;;;5070715;28;20025;-65
2022/07/30 12:55:32;;;;;;;18.98;14.13;;;;;;;;;;5052343;28;20024;-65
2022/07/30 12:58:07;;;;;;;18.43;14.10;;;;;;;;;;5060142;28;20024;-59
2022/07/30 13:00:49;;;;;;;18.38;13.88;;;;;;;;;;5071312;28;20102;-66
2022/07/30 13:03:22;;;;;;;17.17;13.93;;;;;;;;;;5068792;28;20028;-65
2022/07/30 13:05:49;;;;;;;17.63;13.70;;;;;;;;;;5072148;28;20493;-65
2022/07/30 13:08:15;;;;;;;17.92;13.30;;;;;;;;;;5071941;28;20047;-50
2022/07/30 13:11:00;;;;;;;18.33;13.75;;;;;;;;;;5071550;28;20025;-53
2022/07/30 13:13:27;;;;;;;18.20;13.57;;;;;;;;;;5071926;28;20021;-68
2022/07/30 13:16:00;;;;;;;17.58;13.10;;;;;;;;;;5072322;28;20021;-62
2022/07/30 13:18:27;;;;;;;18.98;13.93;;;;;;;;;;5071641;28;20025;-59
2022/07/30 13:20:53;;;;;;;18.15;13.52;;;;;;;;;;5071954;28;20031;-51
2022/07/30 13:23:19;;;;;;;17.60;13.40;;;;;;;;;;5070425;28;20473;-64
2022/07/30 13:25:45;;;;;;;16.95;13.20;;;;;;;;;;5071848;28;20030;-64
2022/07/30 13:28:11;;;;;;;16.48;13.15;;;;;;;;;;5071366;28;20024;-66
2022/07/30 13:30:36;;;;;;;16.40;12.88;;;;;;;;;;5069991;28;20029;-65
2022/07/30 13:33:02;;;;;;;17.25;12.98;;;;;;;;;;5071575;28;20552;-66
2022/07/30 13:35:29;;;;;;;18.13;12.98;;;;;;;;;;5070487;28;20119;-66
2022/07/30 13:37:55;;;;;;;18.92;12.57;;;;;;;;;;5071640;28;20024;-66
2022/07/30 13:40:21;;;;;;;17.40;12.57;;;;;;;;;;5071863;28;20340;-65
2022/07/30 13:42:48;;;;;;;17.23;12.73;;;;;;;;;;5074505;28;20115;-65
2022/07/30 13:45:14;;;;;;;16.30;12.25;;;;;;;;;;5078108;28;20191;-64
2022/07/30 13:47:40;;;;;;;16.80;12.80;;;;;;;;;;5078245;28;20048;-65
2022/07/30 13:50:06;;;;;;;16.27;12.52;;;;;;;;;;5076806;28;20031;-64
2022/07/30 13:52:32;;;;;;;16.25;12.77;;;;;;;;;;5078305;28;20162;-65
2022/07/30 13:54:58;;;;;;;18.17;12.70;;;;;;;;;;5077948;28;20024;-65
2022/07/30 13:57:24;;;;;;;17.38;13.02;;;;;;;;;;5078143;28;20081;-64
2022/07/30 13:59:50;;;;;;;17.00;13.15;;;;;;;;;;5093574;22;20105;-58
2022/07/30 14:02:16;;;;;;;17.42;12.73;;;;;;;;;;5038029;28;20053;-58
2022/07/30 14:04:42;;;;;;;17.13;13.18;;;;;;;;;;5038634;28;20052;-60
2022/07/30 14:07:08;;;;;;;18.30;12.88;;;;;;;;;;5038698;28;20029;-56
2022/07/30 14:09:34;;;;;;;17.40;12.40;;;;;;;;;;5038338;28;20025;-58
2022/07/30 14:12:00;;;;;;;16.35;12.15;;;;;;;;;;5037293;28;20120;-58
2022/07/30 14:14:26;;;;;;;16.45;12.45;;;;;;;;;;5039012;28;20037;-58
2022/07/30 14:16:52;;;;;;;30.60;13.68;;;;;;;;;;5038175;28;20171;-58
2022/07/30 14:19:18;;;;;;;15.90;11.80;;;;;;;;;;5039515;28;20100;-59
2022/07/30 14:21:45;;;;;;;18.63;12.27;;;;;;;;;;5039680;28;20056;-58